createdAt,value
2019-04-28T00:00:51.057Z,8.95
2019-04-28T00:01:51.300Z,8.95
2019-04-28T00:02:50.764Z,8.95
2019-04-28T00:03:51.618Z,8.94
2019-04-28T00:04:51.439Z,8.97
2019-04-28T00:05:51.404Z,8.99
2019-04-28T00:06:51.519Z,8.95
2019-04-28T00:07:50.578Z,8.95
2019-04-28T00:08:51.800Z,8.99
2019-04-28T00:09:51.114Z,8.95
2019-04-28T00:10:53.137Z,8.97
2019-04-28T00:11:51.722Z,9.00
2019-04-28T00:12:51.095Z,9.00
2019-04-28T00:13:51.882Z,8.94
2019-04-28T00:14:51.659Z,8.99
2019-04-28T00:15:51.634Z,8.94
2019-04-28T00:16:51.180Z,9.00
2019-04-28T00:17:51.602Z,8.95
2019-04-28T00:18:51.078Z,8.95
2019-04-28T00:19:51.514Z,9.11
2019-04-28T00:20:50.984Z,8.94
2019-04-28T00:21:51.671Z,8.92
2019-04-28T00:22:51.548Z,8.97
2019-04-28T00:23:51.237Z,9.00
2019-04-28T00:24:51.489Z,9.03
2019-04-28T00:25:51.462Z,8.97
2019-04-28T00:26:51.928Z,9.06
2019-04-28T00:27:51.577Z,9.02
2019-04-28T00:28:51.315Z,9.03
2019-04-28T00:29:51.799Z,8.92
2019-04-28T00:30:51.701Z,8.97
2019-04-28T00:31:51.284Z,8.91
2019-04-28T00:32:51.772Z,9.06
2019-04-28T00:33:51.440Z,9.00
2019-04-28T00:34:51.131Z,8.92
2019-04-28T00:35:51.559Z,9.03
2019-04-28T00:36:51.229Z,8.85
2019-04-28T00:37:51.664Z,8.94
2019-04-28T00:38:51.472Z,8.92
2019-04-28T00:39:50.990Z,9.03
2019-04-28T00:40:51.018Z,9.00
2019-04-28T00:41:51.639Z,9.00
2019-04-28T00:42:51.205Z,8.99
2019-04-28T00:43:51.840Z,8.89
2019-04-28T00:44:51.514Z,9.02
2019-04-28T00:45:51.287Z,8.87
2019-04-28T00:46:51.179Z,8.84
2019-04-28T00:47:51.020Z,8.85
2019-04-28T00:48:50.886Z,8.85
2019-04-28T00:49:51.768Z,8.81
2019-04-28T00:50:51.874Z,8.84
2019-04-28T00:51:50.906Z,8.91
2019-04-28T00:52:51.684Z,8.87
2019-04-28T00:53:50.932Z,8.95
2019-04-28T00:54:50.090Z,8.88
2019-04-28T00:55:51.620Z,8.88
2019-04-28T00:56:51.591Z,8.88
2019-04-28T00:57:50.951Z,8.84
2019-04-28T00:58:51.587Z,8.84
2019-04-28T00:59:56.714Z,8.89
2019-04-28T01:00:51.387Z,8.89
2019-04-28T01:01:51.277Z,8.85
2019-04-28T01:02:50.995Z,8.88
2019-04-28T01:03:51.871Z,8.89
2019-04-28T01:04:51.430Z,8.87
2019-04-28T01:05:50.831Z,8.85
2019-04-28T01:06:51.805Z,8.89
2019-04-28T01:07:51.089Z,8.82
2019-04-28T01:08:51.557Z,8.91
2019-04-28T01:09:51.517Z,8.92
2019-04-28T01:10:50.828Z,8.85
2019-04-28T01:11:51.137Z,8.91
2019-04-28T01:12:50.956Z,8.88
2019-04-28T01:13:51.653Z,8.85
2019-04-28T01:14:52.196Z,8.78
2019-04-28T01:15:49.980Z,8.81
2019-04-28T01:16:51.483Z,8.88
2019-04-28T01:17:49.970Z,8.85
2019-04-28T01:18:50.181Z,8.85
2019-04-28T01:19:51.375Z,8.88
2019-04-28T01:20:49.953Z,8.84
2019-04-28T01:21:50.297Z,8.84
2019-04-28T01:22:49.948Z,8.85
2019-04-28T01:23:50.195Z,8.84
2019-04-28T01:24:49.935Z,8.78
2019-04-28T01:25:50.094Z,8.97
2019-04-28T01:26:50.832Z,8.97
2019-04-28T01:27:50.571Z,8.91
2019-04-28T01:28:49.915Z,8.88
2019-04-28T01:29:51.620Z,8.91
2019-04-28T01:30:50.118Z,8.87
2019-04-28T01:31:49.898Z,8.91
2019-04-28T01:32:49.904Z,8.88
2019-04-28T01:33:50.158Z,8.84
2019-04-28T01:34:49.931Z,8.84
2019-04-28T01:35:49.883Z,8.85
2019-04-28T01:36:51.594Z,8.85
2019-04-28T01:37:50.546Z,8.84
2019-04-28T01:38:50.164Z,8.82
2019-04-28T01:39:49.877Z,8.91
2019-04-28T01:40:50.021Z,8.81
2019-04-28T01:41:49.848Z,8.84
2019-04-28T01:42:50.059Z,8.82
2019-04-28T01:43:49.838Z,8.88
2019-04-28T01:44:49.832Z,8.87
2019-04-28T01:45:50.298Z,8.85
2019-04-28T01:46:49.823Z,8.82
2019-04-28T01:47:50.378Z,8.82
2019-04-28T01:48:49.833Z,8.85
2019-04-28T01:49:50.133Z,8.88
2019-04-28T01:50:50.093Z,8.91
2019-04-28T01:51:50.281Z,8.88
2019-04-28T01:52:51.426Z,8.97
2019-04-28T01:53:50.481Z,8.84
2019-04-28T01:54:50.215Z,8.85
2019-04-28T01:55:49.776Z,8.85
2019-04-28T01:56:50.259Z,8.94
2019-04-28T01:57:49.899Z,8.99
2019-04-28T01:58:49.963Z,9.00
2019-04-28T01:59:50.047Z,8.92
2019-04-28T02:00:50.555Z,8.97
2019-04-28T02:01:49.957Z,8.97
2019-04-28T02:02:50.494Z,8.95
2019-04-28T02:03:50.250Z,8.99
2019-04-28T02:04:49.984Z,8.94
2019-04-28T02:05:50.166Z,8.99
2019-04-28T02:06:49.810Z,9.04
2019-04-28T02:07:50.609Z,8.91
2019-04-28T02:08:51.248Z,8.99
2019-04-28T02:09:49.705Z,8.97
2019-04-28T02:10:50.115Z,8.94
2019-04-28T02:11:49.823Z,8.92
2019-04-28T02:12:50.334Z,8.99
2019-04-28T02:13:49.770Z,8.99
2019-04-28T02:14:49.978Z,9.03
2019-04-28T02:15:50.059Z,8.94
2019-04-28T02:16:50.406Z,9.03
2019-04-28T02:17:51.319Z,8.97
2019-04-28T02:18:49.745Z,8.95
2019-04-28T02:19:51.164Z,8.95
2019-04-28T02:20:51.076Z,8.95
2019-04-28T02:21:49.645Z,8.91
2019-04-28T02:22:50.090Z,8.97
2019-04-28T02:23:51.396Z,8.91
2019-04-28T02:24:50.487Z,8.92
2019-04-28T02:25:49.808Z,8.97
2019-04-28T02:26:52.255Z,8.95
2019-04-28T02:27:49.917Z,8.92
2019-04-28T02:28:50.431Z,8.99
2019-04-28T02:29:49.969Z,8.95
2019-04-28T02:30:53.568Z,8.95
2019-04-28T02:31:51.093Z,8.99
2019-04-28T02:32:51.872Z,8.95
2019-04-28T02:33:50.463Z,9.00
2019-04-28T02:34:50.664Z,8.94
2019-04-28T02:35:51.107Z,8.99
2019-04-28T02:36:50.575Z,8.95
2019-04-28T02:37:50.322Z,8.94
2019-04-28T02:38:51.311Z,8.89
2019-04-28T02:39:50.522Z,8.97
2019-04-28T02:40:50.403Z,8.95
2019-04-28T02:41:51.152Z,8.94
2019-04-28T02:42:51.945Z,8.95
2019-04-28T02:43:50.989Z,8.95
2019-04-28T02:44:50.388Z,9.00
2019-04-28T02:45:53.040Z,8.95
2019-04-28T02:46:50.757Z,8.91
2019-04-28T02:47:52.053Z,8.94
2019-04-28T02:48:50.836Z,8.94
2019-04-28T02:49:50.362Z,8.91
2019-04-28T02:50:50.945Z,8.95
2019-04-28T02:51:50.548Z,8.95
2019-04-28T02:52:51.824Z,8.99
2019-04-28T02:53:51.148Z,8.94
2019-04-28T02:54:50.722Z,8.94
2019-04-28T02:55:51.342Z,8.87
2019-04-28T02:56:51.012Z,8.87
2019-04-28T02:57:51.594Z,8.87
2019-04-28T02:58:51.082Z,8.97
2019-04-28T02:59:50.859Z,8.95
2019-04-28T03:01:02.595Z,8.89
2019-04-28T03:01:50.960Z,8.87
2019-04-28T03:02:51.392Z,8.92
2019-04-28T03:03:50.736Z,8.91
2019-04-28T03:04:50.654Z,8.89
2019-04-28T03:05:51.239Z,8.82
2019-04-28T03:06:51.642Z,8.85
2019-04-28T03:07:51.529Z,8.82
2019-04-28T03:08:50.606Z,8.79
2019-04-28T03:09:51.731Z,8.81
2019-04-28T03:10:50.938Z,8.81
2019-04-28T03:11:51.181Z,8.78
2019-04-28T03:12:51.634Z,8.79
2019-04-28T03:13:51.156Z,8.74
2019-04-28T03:14:50.519Z,8.81
2019-04-28T03:15:51.644Z,8.81
2019-04-28T03:16:50.944Z,8.73
2019-04-28T03:17:52.451Z,8.78
2019-04-28T03:18:51.379Z,8.81
2019-04-28T03:19:51.745Z,8.79
2019-04-28T03:20:51.547Z,8.85
2019-04-28T03:21:51.062Z,8.78
2019-04-28T03:22:51.095Z,8.76
2019-04-28T03:23:51.310Z,8.76
2019-04-28T03:24:51.056Z,8.69
2019-04-28T03:25:50.632Z,8.73
2019-04-28T03:26:50.944Z,8.69
2019-04-28T03:27:50.924Z,8.70
2019-04-28T03:28:51.367Z,8.67
2019-04-28T03:29:50.405Z,8.67
2019-04-28T03:30:53.324Z,8.69
2019-04-28T03:32:13.635Z,8.79
2019-04-28T03:32:58.454Z,8.81
2019-04-28T03:33:55.210Z,8.82
2019-04-28T03:34:53.946Z,8.85
2019-04-28T03:35:53.101Z,8.79
2019-04-28T03:36:51.718Z,8.79
2019-04-28T03:37:51.274Z,8.91
2019-04-28T03:38:50.975Z,8.85
2019-04-28T03:39:50.452Z,8.87
2019-04-28T03:40:51.243Z,8.87
2019-04-28T03:41:50.243Z,8.85
2019-04-28T03:42:51.339Z,8.87
2019-04-28T03:43:51.323Z,8.79
2019-04-28T03:44:51.107Z,8.85
2019-04-28T03:45:50.319Z,8.78
2019-04-28T03:46:51.217Z,8.82
2019-04-28T03:47:50.930Z,8.89
2019-04-28T03:48:50.898Z,8.81
2019-04-28T03:49:50.561Z,8.88
2019-04-28T03:50:51.395Z,8.87
2019-04-28T03:51:50.624Z,8.85
2019-04-28T03:52:51.181Z,8.84
2019-04-28T03:53:50.712Z,8.85
2019-04-28T03:54:50.865Z,8.85
2019-04-28T03:55:51.359Z,8.88
2019-04-28T03:56:50.213Z,8.79
2019-04-28T03:57:51.015Z,8.76
2019-04-28T03:58:50.408Z,8.78
2019-04-28T03:59:51.119Z,8.64
2019-04-28T04:00:50.692Z,8.69
2019-04-28T04:01:56.634Z,8.67
2019-04-28T04:02:50.741Z,8.67
2019-04-28T04:03:51.459Z,8.78
2019-04-28T04:04:49.105Z,8.78
2019-04-28T04:05:50.860Z,8.81
2019-04-28T04:06:50.906Z,8.79
2019-04-28T04:07:50.685Z,8.82
2019-04-28T04:08:50.601Z,8.71
2019-04-28T04:09:51.485Z,8.78
2019-04-28T04:10:50.244Z,8.73
2019-04-28T04:11:50.884Z,8.78
2019-04-28T04:12:50.913Z,8.81
2019-04-28T04:13:51.161Z,8.82
2019-04-28T04:14:50.754Z,8.76
2019-04-28T04:15:50.709Z,8.81
2019-04-28T04:16:50.213Z,8.82
2019-04-28T04:17:50.981Z,8.79
2019-04-28T04:18:53.119Z,8.85
2019-04-28T04:19:50.319Z,8.81
2019-04-28T04:20:51.123Z,8.82
2019-04-28T04:21:50.385Z,8.82
2019-04-28T04:22:51.183Z,8.81
2019-04-28T04:23:50.964Z,8.84
2019-04-28T04:24:50.253Z,8.82
2019-04-28T04:25:51.161Z,8.85
2019-04-28T04:26:50.565Z,8.81
2019-04-28T04:27:50.207Z,8.71
2019-04-28T04:28:51.178Z,8.87
2019-04-28T04:29:50.956Z,8.78
2019-04-28T04:30:50.811Z,8.78
2019-04-28T04:31:51.070Z,8.82
2019-04-28T04:32:50.682Z,8.76
2019-04-28T04:33:50.631Z,8.81
2019-04-28T04:34:50.544Z,8.84
2019-04-28T04:35:51.539Z,8.85
2019-04-28T04:36:50.922Z,8.79
2019-04-28T04:37:50.392Z,8.78
2019-04-28T04:38:50.967Z,8.76
2019-04-28T04:39:51.285Z,8.79
2019-04-28T04:40:51.230Z,8.78
2019-04-28T04:41:50.419Z,8.81
2019-04-28T04:42:50.202Z,8.82
2019-04-28T04:43:51.081Z,8.84
2019-04-28T04:44:50.153Z,8.81
2019-04-28T04:45:50.230Z,8.87
2019-04-28T04:46:50.887Z,8.85
2019-04-28T04:47:50.424Z,8.88
2019-04-28T04:48:50.739Z,8.84
2019-04-28T04:49:50.520Z,8.81
2019-04-28T04:50:50.879Z,8.85
2019-04-28T04:51:50.873Z,8.82
2019-04-28T04:52:50.182Z,8.82
2019-04-28T04:53:51.104Z,8.87
2019-04-28T04:54:51.014Z,8.85
2019-04-28T04:55:52.384Z,8.91
2019-04-28T04:56:50.131Z,8.82
2019-04-28T04:57:50.631Z,8.97
2019-04-28T04:58:50.448Z,8.97
2019-04-28T04:59:50.034Z,8.94
2019-04-28T05:00:51.013Z,8.87
2019-04-28T05:01:50.255Z,8.92
2019-04-28T05:02:52.973Z,8.89
2019-04-28T05:03:49.777Z,8.92
2019-04-28T05:04:50.544Z,8.95
2019-04-28T05:05:50.179Z,8.97
2019-04-28T05:06:49.685Z,9.06
2019-04-28T05:07:50.610Z,9.06
2019-04-28T05:08:49.885Z,8.97
2019-04-28T05:09:49.553Z,9.13
2019-04-28T05:10:49.938Z,9.06
2019-04-28T05:11:49.949Z,9.11
2019-04-28T05:12:49.898Z,9.04
2019-04-28T05:13:49.802Z,9.06
2019-04-28T05:14:49.447Z,9.10
2019-04-28T05:15:48.739Z,9.04
2019-04-28T05:16:49.728Z,9.04
2019-04-28T05:17:50.095Z,9.14
2019-04-28T05:18:49.892Z,9.13
2019-04-28T05:19:49.710Z,9.14
2019-04-28T05:20:50.317Z,9.18
2019-04-28T05:21:49.833Z,9.26
2019-04-28T05:22:50.555Z,9.31
2019-04-28T05:23:49.290Z,9.32
2019-04-28T05:24:51.147Z,9.41
2019-04-28T05:25:49.739Z,9.50
2019-04-28T05:26:49.595Z,9.43
2019-04-28T05:27:50.035Z,9.41
2019-04-28T05:28:51.564Z,9.41
2019-04-28T05:29:51.137Z,9.44
2019-04-28T05:30:50.197Z,9.46
2019-04-28T05:31:50.252Z,9.43
2019-04-28T05:32:55.580Z,9.54
2019-04-28T05:33:49.852Z,9.54
2019-04-28T05:34:50.625Z,9.50
2019-04-28T05:35:50.091Z,9.62
2019-04-28T05:36:50.377Z,9.61
2019-04-28T05:37:49.434Z,9.61
2019-04-28T05:38:49.657Z,9.62
2019-04-28T05:39:49.684Z,9.65
2019-04-28T05:40:49.822Z,9.68
2019-04-28T05:41:50.241Z,9.66
2019-04-28T05:42:49.703Z,9.80
2019-04-28T05:43:50.382Z,9.89
2019-04-28T05:44:49.668Z,9.86
2019-04-28T05:45:49.874Z,9.84
2019-04-28T05:46:50.352Z,9.84
2019-04-28T05:47:50.121Z,9.82
2019-04-28T05:48:49.457Z,9.79
2019-04-28T05:49:49.601Z,9.83
2019-04-28T05:50:50.040Z,9.92
2019-04-28T05:51:50.369Z,9.97
2019-04-28T05:52:50.129Z,9.97
2019-04-28T05:53:50.617Z,9.97
2019-04-28T05:54:49.636Z,10.02
2019-04-28T05:55:50.164Z,10.07
2019-04-28T05:56:49.593Z,10.13
2019-04-28T05:57:51.556Z,9.98
2019-04-28T05:58:50.345Z,10.15
2019-04-28T05:59:50.001Z,10.17
2019-04-28T06:00:49.886Z,10.19
2019-04-28T06:01:50.468Z,10.12
2019-04-28T06:02:56.547Z,10.09
2019-04-28T06:03:49.676Z,10.01
2019-04-28T06:04:49.445Z,10.15
2019-04-28T06:05:49.704Z,10.04
2019-04-28T06:06:49.436Z,10.17
2019-04-28T06:07:49.365Z,10.25
2019-04-28T06:08:50.846Z,10.09
2019-04-28T06:09:50.018Z,10.15
2019-04-28T06:10:49.860Z,10.20
2019-04-28T06:11:49.576Z,10.23
2019-04-28T06:12:49.591Z,10.22
2019-04-28T06:13:50.081Z,10.12
2019-04-28T06:14:50.234Z,10.12
2019-04-28T06:15:49.675Z,10.09
2019-04-28T06:16:50.598Z,10.16
2019-04-28T06:17:49.828Z,10.25
2019-04-28T06:18:50.071Z,10.12
2019-04-28T06:19:50.257Z,10.20
2019-04-28T06:20:49.780Z,10.13
2019-04-28T06:21:48.426Z,10.15
2019-04-28T06:22:48.423Z,10.15
2019-04-28T06:23:48.418Z,10.07
2019-04-28T06:24:48.413Z,10.17
2019-04-28T06:25:48.408Z,10.19
2019-04-28T06:26:48.406Z,10.17
2019-04-28T06:27:48.401Z,10.26
2019-04-28T06:28:48.395Z,10.31
2019-04-28T06:29:48.391Z,10.26
2019-04-28T06:30:48.387Z,10.40
2019-04-28T06:31:48.382Z,10.33
2019-04-28T06:32:48.378Z,10.31
2019-04-28T06:33:48.373Z,10.38
2019-04-28T06:34:48.371Z,10.33
2019-04-28T06:35:48.366Z,10.42
2019-04-28T06:36:48.360Z,10.44
2019-04-28T06:37:48.358Z,10.57
2019-04-28T06:38:48.356Z,10.44
2019-04-28T06:39:48.350Z,10.49
2019-04-28T06:40:48.345Z,10.57
2019-04-28T06:41:48.340Z,10.41
2019-04-28T06:42:48.337Z,10.53
2019-04-28T06:43:48.333Z,10.67
2019-04-28T06:44:48.329Z,10.63
2019-04-28T06:45:48.324Z,10.72
2019-04-28T06:46:48.323Z,10.84
2019-04-28T06:47:48.317Z,10.96
2019-04-28T06:48:48.312Z,10.94
2019-04-28T06:49:48.307Z,11.10
2019-04-28T06:50:48.305Z,10.99
2019-04-28T06:51:48.301Z,11.08
2019-04-28T06:52:48.296Z,11.04
2019-04-28T06:53:48.292Z,10.92
2019-04-28T06:54:48.290Z,10.87
2019-04-28T06:55:48.284Z,10.86
2019-04-28T06:56:48.281Z,10.69
2019-04-28T06:57:48.278Z,10.89
2019-04-28T06:58:58.401Z,10.96
2019-04-28T06:59:48.273Z,10.90
2019-04-28T07:00:48.267Z,10.92
2019-04-28T07:01:48.265Z,10.99
2019-04-28T07:02:48.260Z,11.02
2019-04-28T07:03:48.255Z,10.99
2019-04-28T07:04:48.250Z,11.05
2019-04-28T07:05:48.248Z,11.15
2019-04-28T07:06:48.243Z,11.12
2019-04-28T07:07:48.241Z,11.12
2019-04-28T07:08:48.237Z,11.11
2019-04-28T07:09:48.237Z,11.15
2019-04-28T07:10:48.231Z,11.22
2019-04-28T07:11:48.227Z,11.23
2019-04-28T07:12:48.223Z,11.23
2019-04-28T07:13:48.220Z,11.29
2019-04-28T07:14:48.216Z,11.30
2019-04-28T07:15:48.213Z,11.45
2019-04-28T07:16:48.209Z,11.50
2019-04-28T07:17:48.211Z,11.68
2019-04-28T07:18:48.202Z,11.55
2019-04-28T07:19:48.200Z,11.50
2019-04-28T07:20:48.197Z,11.55
2019-04-28T07:21:48.192Z,11.63
2019-04-28T07:22:48.190Z,11.32
2019-04-28T07:23:48.187Z,11.43
2019-04-28T07:24:48.182Z,11.47
2019-04-28T07:25:48.178Z,11.47
2019-04-28T07:26:48.177Z,11.52
2019-04-28T07:27:48.178Z,11.75
2019-04-28T07:28:48.171Z,11.87
2019-04-28T07:29:48.166Z,12.04
2019-04-28T07:30:48.164Z,12.04
2019-04-28T07:31:48.161Z,11.83
2019-04-28T07:32:48.156Z,11.72
2019-04-28T07:33:48.158Z,11.78
2019-04-28T07:34:48.152Z,12.04
2019-04-28T07:35:48.149Z,11.95
2019-04-28T07:36:48.144Z,11.83
2019-04-28T07:37:48.141Z,11.72
2019-04-28T07:38:48.139Z,11.86
2019-04-28T07:39:48.137Z,11.84
2019-04-28T07:40:48.133Z,11.63
2019-04-28T07:41:48.130Z,11.52
2019-04-28T07:42:48.127Z,11.63
2019-04-28T07:43:48.127Z,11.87
2019-04-28T07:44:48.122Z,11.94
2019-04-28T07:45:48.117Z,12.02
2019-04-28T07:46:48.120Z,12.10
2019-04-28T07:47:48.114Z,11.94
2019-04-28T07:48:48.110Z,11.94
2019-04-28T07:49:48.108Z,12.06
2019-04-28T07:50:48.104Z,11.99
2019-04-28T07:51:48.102Z,11.94
2019-04-28T07:52:48.098Z,11.86
2019-04-28T07:53:48.096Z,11.86
2019-04-28T07:54:48.094Z,11.99
2019-04-28T07:55:48.091Z,12.03
2019-04-28T07:56:48.089Z,12.00
2019-04-28T07:57:48.085Z,11.97
2019-04-28T07:58:48.084Z,12.25
2019-04-28T07:59:48.081Z,12.32
2019-04-28T08:00:48.866Z,12.27
2019-04-28T08:01:48.078Z,12.29
2019-04-28T08:02:48.074Z,12.27
2019-04-28T08:03:49.762Z,12.10
2019-04-28T08:04:48.070Z,12.15
2019-04-28T08:05:48.066Z,12.29
2019-04-28T08:06:48.065Z,12.43
2019-04-28T08:07:48.062Z,12.61
2019-04-28T08:08:48.059Z,12.86
2019-04-28T08:09:48.058Z,13.04
2019-04-28T08:10:48.056Z,13.16
2019-04-28T08:11:48.056Z,13.11
2019-04-28T08:12:49.217Z,13.52
2019-04-28T08:13:48.065Z,13.72
2019-04-28T08:14:48.050Z,13.83
2019-04-28T08:15:48.050Z,14.05
2019-04-28T08:16:48.048Z,14.18
2019-04-28T08:17:48.056Z,14.53
2019-04-28T08:18:48.047Z,14.65
2019-04-28T08:19:48.049Z,14.36
2019-04-28T08:20:48.053Z,14.68
2019-04-28T08:21:48.049Z,14.59
2019-04-28T08:22:48.053Z,14.85
2019-04-28T08:23:48.050Z,14.91
2019-04-28T08:24:48.050Z,15.27
2019-04-28T08:25:48.053Z,15.29
2019-04-28T08:26:48.054Z,15.49
2019-04-28T08:27:48.056Z,15.51
2019-04-28T08:28:48.056Z,15.22
2019-04-28T08:29:58.009Z,15.64
2019-04-28T08:30:48.062Z,15.65
2019-04-28T08:31:48.066Z,15.75
2019-04-28T08:32:48.068Z,16.01
2019-04-28T08:33:48.070Z,15.83
2019-04-28T08:34:48.075Z,15.83
2019-04-28T08:35:48.079Z,15.92
2019-04-28T08:36:48.082Z,16.01
2019-04-28T08:37:48.087Z,15.09
2019-04-28T08:38:48.091Z,14.94
2019-04-28T08:39:48.095Z,14.99
2019-04-28T08:40:48.099Z,14.91
2019-04-28T08:41:48.103Z,15.04
2019-04-28T08:42:48.109Z,15.15
2019-04-28T08:43:48.113Z,15.39
2019-04-28T08:44:48.116Z,15.29
2019-04-28T08:45:48.121Z,15.25
2019-04-28T08:46:48.126Z,15.15
2019-04-28T08:47:48.131Z,14.51
2019-04-28T08:48:48.135Z,14.18
2019-04-28T08:49:48.139Z,14.29
2019-04-28T08:50:48.144Z,14.18
2019-04-28T08:51:48.149Z,13.95
2019-04-28T08:52:48.152Z,13.79
2019-04-28T08:53:48.156Z,13.68
2019-04-28T08:54:48.163Z,13.50
2019-04-28T08:55:48.165Z,13.65
2019-04-28T08:56:48.167Z,13.28
2019-04-28T08:57:48.171Z,13.19
2019-04-28T08:58:48.174Z,13.16
2019-04-28T08:59:48.177Z,13.16
2019-04-28T09:00:48.178Z,13.08
2019-04-28T09:01:48.183Z,13.13
2019-04-28T09:02:48.183Z,12.95
2019-04-28T09:03:48.190Z,13.13
2019-04-28T09:04:48.188Z,13.28
2019-04-28T09:05:48.190Z,13.30
2019-04-28T09:06:48.192Z,13.35
2019-04-28T09:07:48.196Z,13.47
2019-04-28T09:08:48.197Z,13.60
2019-04-28T09:09:48.197Z,13.30
2019-04-28T09:10:48.198Z,13.30
2019-04-28T09:11:48.199Z,13.28
2019-04-28T09:12:48.242Z,13.30
2019-04-28T09:13:48.201Z,13.46
2019-04-28T09:14:48.202Z,13.70
2019-04-28T09:15:48.205Z,13.67
2019-04-28T09:16:48.202Z,13.77
2019-04-28T09:17:48.204Z,13.70
2019-04-28T09:18:48.206Z,13.75
2019-04-28T09:19:48.207Z,14.11
2019-04-28T09:20:48.206Z,13.97
2019-04-28T09:21:48.208Z,14.18
2019-04-28T09:22:48.209Z,14.14
2019-04-28T09:23:48.209Z,13.95
2019-04-28T09:24:48.211Z,14.15
2019-04-28T09:25:48.211Z,14.17
2019-04-28T09:26:48.210Z,13.83
2019-04-28T09:27:48.214Z,13.81
2019-04-28T09:28:48.213Z,13.92
2019-04-28T09:29:48.214Z,14.07
2019-04-28T09:30:48.215Z,13.97
2019-04-28T09:31:48.214Z,14.25
2019-04-28T09:32:48.218Z,14.44
2019-04-28T09:33:48.216Z,14.33
2019-04-28T09:34:48.218Z,14.35
2019-04-28T09:35:48.219Z,14.36
2019-04-28T09:36:48.218Z,14.50
2019-04-28T09:37:48.220Z,14.58
2019-04-28T09:38:48.224Z,14.72
2019-04-28T09:39:48.222Z,14.59
2019-04-28T09:40:48.223Z,14.45
2019-04-28T09:41:48.223Z,14.26
2019-04-28T09:42:48.224Z,13.99
2019-04-28T09:43:48.226Z,13.96
2019-04-28T09:44:48.227Z,13.81
2019-04-28T09:45:48.227Z,13.54
2019-04-28T09:46:48.230Z,13.63
2019-04-28T09:47:48.229Z,13.62
2019-04-28T09:48:48.231Z,13.87
2019-04-28T09:49:48.231Z,13.99
2019-04-28T09:50:48.232Z,14.18
2019-04-28T09:51:48.234Z,14.28
2019-04-28T09:52:48.841Z,14.11
2019-04-28T09:53:48.232Z,14.26
2019-04-28T09:54:48.233Z,14.28
2019-04-28T09:55:48.235Z,14.15
2019-04-28T09:56:56.386Z,13.75
2019-04-28T09:57:48.237Z,13.74
2019-04-28T09:58:48.244Z,13.81
2019-04-28T09:59:48.237Z,13.81
2019-04-28T10:00:48.287Z,13.93
2019-04-28T10:01:48.238Z,13.78
2019-04-28T10:02:48.237Z,13.83
2019-04-28T10:03:48.249Z,13.65
2019-04-28T10:04:48.238Z,13.46
2019-04-28T10:05:48.241Z,13.44
2019-04-28T10:06:48.239Z,13.41
2019-04-28T10:07:48.238Z,13.44
2019-04-28T10:08:48.241Z,13.47
2019-04-28T10:09:48.241Z,13.42
2019-04-28T10:10:48.242Z,13.41
2019-04-28T10:11:48.241Z,13.28
2019-04-28T10:12:48.243Z,13.22
2019-04-28T10:13:48.240Z,13.25
2019-04-28T10:14:48.241Z,13.11
2019-04-28T10:15:48.242Z,13.03
2019-04-28T10:16:48.240Z,13.03
2019-04-28T10:17:48.240Z,12.95
2019-04-28T10:18:48.239Z,12.94
2019-04-28T10:19:48.242Z,12.78
2019-04-28T10:20:48.237Z,12.82
2019-04-28T10:21:48.237Z,12.61
2019-04-28T10:22:48.271Z,12.54
2019-04-28T10:23:48.236Z,12.57
2019-04-28T10:24:48.245Z,12.76
2019-04-28T10:25:48.236Z,12.80
2019-04-28T10:26:48.235Z,12.72
2019-04-28T10:27:48.234Z,12.72
2019-04-28T10:28:48.231Z,12.73
2019-04-28T10:29:48.231Z,12.87
2019-04-28T10:30:48.230Z,12.82
2019-04-28T10:31:48.229Z,12.85
2019-04-28T10:32:48.228Z,12.83
2019-04-28T10:33:48.228Z,13.05
2019-04-28T10:34:54.645Z,13.22
2019-04-28T10:35:48.228Z,13.18
2019-04-28T10:36:48.224Z,12.95
2019-04-28T10:37:48.223Z,12.85
2019-04-28T10:38:48.221Z,13.00
2019-04-28T10:39:48.223Z,13.05
2019-04-28T10:40:48.219Z,13.15
2019-04-28T10:41:48.219Z,13.20
2019-04-28T10:42:48.217Z,13.25
2019-04-28T10:43:48.217Z,13.19
2019-04-28T10:44:48.216Z,13.15
2019-04-28T10:45:48.219Z,13.12
2019-04-28T10:46:48.213Z,13.12
2019-04-28T10:47:48.212Z,12.97
2019-04-28T10:48:48.211Z,12.83
2019-04-28T10:49:48.210Z,12.82
2019-04-28T10:50:48.212Z,13.05
2019-04-28T10:51:58.746Z,13.22
2019-04-28T10:52:48.206Z,13.37
2019-04-28T10:53:48.205Z,13.52
2019-04-28T10:54:48.204Z,13.60
2019-04-28T10:55:48.202Z,13.60
2019-04-28T10:56:48.202Z,13.38
2019-04-28T10:57:48.202Z,13.56
2019-04-28T10:58:48.200Z,13.78
2019-04-28T10:59:48.199Z,13.67
2019-04-28T11:00:48.197Z,13.75
2019-04-28T11:01:48.197Z,13.81
2019-04-28T11:02:48.196Z,14.05
2019-04-28T11:03:48.195Z,14.28
2019-04-28T11:04:48.191Z,14.53
2019-04-28T11:05:48.197Z,14.36
2019-04-28T11:06:48.192Z,14.15
2019-04-28T11:07:48.190Z,14.14
2019-04-28T11:08:48.190Z,13.95
2019-04-28T11:09:48.194Z,14.00
2019-04-28T11:10:48.197Z,14.22
2019-04-28T11:11:48.187Z,14.14
2019-04-28T11:12:48.187Z,14.11
2019-04-28T11:13:48.187Z,14.07
2019-04-28T11:14:48.187Z,14.23
2019-04-28T11:15:48.187Z,14.20
2019-04-28T11:16:48.191Z,14.10
2019-04-28T11:17:48.190Z,14.11
2019-04-28T11:18:48.184Z,13.99
2019-04-28T11:19:48.184Z,14.08
2019-04-28T11:20:48.182Z,14.28
2019-04-28T11:21:48.183Z,14.45
2019-04-28T11:22:48.182Z,14.55
2019-04-28T11:23:48.183Z,14.51
2019-04-28T11:24:48.181Z,14.53
2019-04-28T11:25:48.182Z,14.55
2019-04-28T11:26:48.180Z,14.72
2019-04-28T11:27:48.181Z,14.62
2019-04-28T11:28:48.180Z,14.54
2019-04-28T11:29:48.180Z,14.50
2019-04-28T11:30:48.180Z,14.58
2019-04-28T11:31:48.180Z,14.63
2019-04-28T11:32:48.180Z,14.65
2019-04-28T11:33:48.180Z,14.77
2019-04-28T11:34:48.180Z,14.81
2019-04-28T11:35:48.179Z,14.81
2019-04-28T11:36:48.177Z,14.78
2019-04-28T11:37:48.185Z,14.78
2019-04-28T11:38:48.179Z,14.73
2019-04-28T11:39:48.179Z,14.62
2019-04-28T11:40:48.181Z,14.54
2019-04-28T11:41:48.178Z,14.54
2019-04-28T11:42:48.179Z,14.47
2019-04-28T11:43:48.180Z,14.35
2019-04-28T11:44:48.179Z,14.32
2019-04-28T11:45:48.177Z,14.17
2019-04-28T11:46:48.177Z,14.14
2019-04-28T11:47:48.180Z,14.11
2019-04-28T11:48:48.178Z,14.04
2019-04-28T11:49:48.177Z,13.92
2019-04-28T11:50:48.187Z,14.05
2019-04-28T11:51:48.177Z,14.10
2019-04-28T11:52:48.176Z,14.11
2019-04-28T11:53:48.177Z,13.97
2019-04-28T11:54:48.176Z,13.75
2019-04-28T11:55:48.175Z,13.67
2019-04-28T11:56:48.175Z,13.71
2019-04-28T11:57:48.175Z,13.68
2019-04-28T11:58:48.174Z,13.67
2019-04-28T11:59:48.175Z,13.63
2019-04-28T12:00:48.172Z,13.65
2019-04-28T12:01:48.172Z,13.72
2019-04-28T12:02:48.172Z,13.59
2019-04-28T12:03:48.172Z,13.31
2019-04-28T12:04:48.169Z,13.30
2019-04-28T12:05:48.180Z,13.33
2019-04-28T12:06:48.169Z,13.39
2019-04-28T12:07:48.167Z,13.42
2019-04-28T12:08:48.167Z,13.50
2019-04-28T12:09:48.165Z,13.53
2019-04-28T12:10:48.165Z,13.56
2019-04-28T12:11:48.165Z,13.52
2019-04-28T12:12:48.164Z,13.41
2019-04-28T12:13:48.164Z,13.38
2019-04-28T12:14:48.161Z,13.44
2019-04-28T12:15:48.162Z,13.52
2019-04-28T12:16:48.160Z,13.41
2019-04-28T12:17:48.158Z,13.60
2019-04-28T12:18:48.157Z,13.79
2019-04-28T12:19:48.156Z,13.81
2019-04-28T12:20:48.155Z,13.86
2019-04-28T12:21:48.154Z,13.99
2019-04-28T12:22:48.152Z,13.96
2019-04-28T12:23:48.153Z,14.04
2019-04-28T12:24:48.152Z,13.89
2019-04-28T12:25:48.149Z,13.87
2019-04-28T12:26:48.218Z,13.96
2019-04-28T12:27:48.149Z,13.81
2019-04-28T12:28:48.147Z,13.53
2019-04-28T12:29:48.147Z,13.75
2019-04-28T12:30:48.148Z,13.92
2019-04-28T12:31:48.146Z,14.04
2019-04-28T12:32:48.146Z,14.17
2019-04-28T12:33:48.143Z,13.87
2019-04-28T12:34:48.142Z,13.99
2019-04-28T12:35:48.382Z,13.95
2019-04-28T12:36:48.142Z,14.04
2019-04-28T12:37:48.140Z,14.10
2019-04-28T12:38:48.198Z,14.14
2019-04-28T12:39:48.142Z,14.17
2019-04-28T12:40:48.136Z,14.17
2019-04-28T12:41:48.137Z,14.25
2019-04-28T12:42:48.136Z,14.23
2019-04-28T12:43:48.137Z,13.92
2019-04-28T12:44:48.134Z,13.93
2019-04-28T12:45:48.133Z,13.93
2019-04-28T12:46:48.134Z,14.11
2019-04-28T12:47:48.135Z,14.45
2019-04-28T12:48:48.132Z,14.68
2019-04-28T12:49:48.134Z,14.72
2019-04-28T12:50:48.131Z,14.65
2019-04-28T12:51:48.131Z,14.55
2019-04-28T12:52:48.132Z,14.50
2019-04-28T12:53:48.129Z,14.55
2019-04-28T12:54:48.129Z,14.70
2019-04-28T12:55:48.169Z,14.63
2019-04-28T12:56:48.127Z,14.04
2019-04-28T12:57:48.127Z,13.83
2019-04-28T12:58:48.127Z,13.99
2019-04-28T12:59:48.130Z,14.23
2019-04-28T13:00:48.126Z,14.51
2019-04-28T13:01:48.125Z,14.53
2019-04-28T13:02:48.125Z,14.62
2019-04-28T13:03:48.124Z,14.44
2019-04-28T13:04:48.123Z,14.62